»·PEaware :: N2442P KWJF-KSBA

N2442P :: KWJF-KSBA

FLIGHT INFORMATION

Flight Status: Arrived
Operator: Privately registered:
United States
More flights under this callsign
Pilot: Ken Q. (14290)
Aircraft: MOONEY M-20K/M ENCORE BRAVO
(M20T)
More flights by this aircraft type
Origin: KWJF Gen Fox
United States
Destination: KSBA Santa Barbara Mun
United States
More flights between these airports :: More routes between these airports
Route: KWJF GMN RZS KSBA
File this flight plan on PilotEdge
Remarks: X
Altitude:
(Current/Filed)
10,500ft
Speed:
(Current/Filed)
165kts
Departed: 30-Sep-19 01:14 PM
Arrived: 30-Sep-19 01:51 PM
Distance/Time
Traveled:
0nm/0:37
Distance/Time
To Go:
Arrived

Flight Plot

Page will automatically refresh every two minutes.

Flight plan parsing failed; only flown route is shown


Map Options




Map Legend


Flown Route
Filed Route
Departure Airport
Arrival Airport
Navaid (VOR, NDB)
Fix

Horizontal Profiles

Position Reports

Time Latitude Longitude Heading Altitude Ground
Speed
30-Sep-19 12:40 34.739208 -118.216650 162 2351ft 0kts
30-Sep-19 12:40 34.739208 -118.216650 162 2351ft 0kts
30-Sep-19 12:41 34.739208 -118.216650 162 2351ft 0kts
30-Sep-19 12:42 34.739208 -118.216650 162 2351ft 0kts
30-Sep-19 12:43 34.739208 -118.216650 162 2351ft 0kts
30-Sep-19 12:44 34.739208 -118.216650 162 2351ft 0kts
30-Sep-19 12:45 34.739208 -118.216650 162 2351ft 0kts
30-Sep-19 12:46 34.739208 -118.216650 162 2351ft 0kts
30-Sep-19 12:47 34.739208 -118.216650 162 2351ft 0kts
30-Sep-19 12:48 34.739208 -118.216650 162 2351ft 0kts
30-Sep-19 12:49 34.739208 -118.216650 162 2351ft 0kts
30-Sep-19 12:50 34.739208 -118.216650 162 2351ft 0kts
30-Sep-19 12:51 34.739208 -118.216650 162 2351ft 0kts
30-Sep-19 12:52 34.739208 -118.216650 162 2351ft 0kts
30-Sep-19 12:53 34.739208 -118.216650 162 2351ft 0kts
30-Sep-19 12:54 34.739208 -118.216650 162 2351ft 0kts
30-Sep-19 12:55 34.739208 -118.216650 162 2351ft 0kts
30-Sep-19 12:56 34.739208 -118.216650 162 2351ft 0kts
30-Sep-19 12:57 34.739208 -118.216650 162 2351ft 0kts
30-Sep-19 12:58 34.739208 -118.216650 162 2351ft 0kts
30-Sep-19 12:59 34.739208 -118.216650 162 2351ft 0kts
30-Sep-19 13:00 34.739207 -118.216650 162 2351ft 0kts
30-Sep-19 13:01 34.739207 -118.216649 162 2351ft 0kts
30-Sep-19 13:02 34.739206 -118.216649 162 2351ft 0kts
30-Sep-19 13:03 34.739206 -118.216649 162 2351ft 0kts
30-Sep-19 13:04 34.739205 -118.216649 162 2351ft 0kts
30-Sep-19 13:05 34.739205 -118.216649 162 2351ft 0kts
30-Sep-19 13:06 34.739488 -118.216372 340 2351ft 7kts
30-Sep-19 13:07 34.741219 -118.214332 72 2351ft 12kts
30-Sep-19 13:08 34.742540 -118.209414 71 2351ft 22kts
30-Sep-19 13:09 34.742946 -118.207235 282 2351ft 0kts
30-Sep-19 13:10 34.742948 -118.207245 281 2351ft 0kts
30-Sep-19 13:11 34.743008 -118.207312 350 2351ft 4kts
30-Sep-19 13:12 34.743973 -118.207680 249 2351ft 0kts
30-Sep-19 13:13 34.739496 -118.224108 258 2571ft 89kts
30-Sep-19 13:14 34.738782 -118.259828 276 3200ft 119kts
30-Sep-19 13:15 34.742335 -118.302292 276 3834ft 131kts
30-Sep-19 13:16 34.747218 -118.347164 278 4454ft 135kts
30-Sep-19 13:17 34.753443 -118.392920 278 5076ft 140kts
30-Sep-19 13:18 34.759379 -118.441892 277 5676ft 150kts
30-Sep-19 13:19 34.763987 -118.493474 276 6301ft 156kts
30-Sep-19 13:20 34.768763 -118.546512 276 6911ft 158kts
30-Sep-19 13:21 34.773573 -118.599401 276 7519ft 154kts
30-Sep-19 13:22 34.778154 -118.650019 277 8010ft 147kts
30-Sep-19 13:23 34.782550 -118.699243 276 8510ft 147kts
30-Sep-19 13:24 34.788490 -118.748716 282 9018ft 148kts
30-Sep-19 13:25 34.797621 -118.797667 282 9514ft 147kts
30-Sep-19 13:26 34.806973 -118.845721 282 10015ft 144kts
30-Sep-19 13:27 34.811012 -118.893395 255 10513ft 143kts
30-Sep-19 13:28 34.789016 -118.938113 241 10577ft 162kts
30-Sep-19 13:29 34.764616 -118.985874 245 10572ft 167kts
30-Sep-19 13:30 34.744994 -119.037016 248 10508ft 168kts
30-Sep-19 13:31 34.726252 -119.090488 251 10013ft 174kts
30-Sep-19 13:32 34.709632 -119.144040 252 9532ft 177kts
30-Sep-19 13:33 34.693027 -119.198121 251 9054ft 179kts
30-Sep-19 13:34 34.676582 -119.255550 255 8570ft 178kts
30-Sep-19 13:35 34.660664 -119.311226 245 7983ft 194kts
30-Sep-19 13:36 34.638454 -119.364574 245 8564ft 167kts
30-Sep-19 13:37 34.617108 -119.415466 246 8610ft 171kts
30-Sep-19 13:38 34.595217 -119.468112 246 8512ft 174kts
30-Sep-19 13:39 34.573488 -119.520527 246 8408ft 179kts
30-Sep-19 13:40 34.550946 -119.575245 243 7909ft 180kts
30-Sep-19 13:41 34.518307 -119.614003 226 7456ft 170kts
30-Sep-19 13:42 34.481136 -119.643266 207 6936ft 159kts
30-Sep-19 13:43 34.441946 -119.656432 197 6410ft 138kts
30-Sep-19 13:44 34.410420 -119.672560 264 5674ft 110kts
30-Sep-19 13:45 34.415721 -119.707374 288 4597ft 111kts
30-Sep-19 13:46 34.417626 -119.743866 305 3084ft 114kts
30-Sep-19 13:47 34.425968 -119.777799 285 1333ft 104kts
30-Sep-19 13:48 34.428048 -119.806283 271 722ft 83kts
30-Sep-19 13:49 34.427913 -119.833547 271 62ft 72kts
30-Sep-19 13:50 34.427687 -119.844319 266 13ft 19kts
30-Sep-19 13:51 34.426704 -119.846152 135 13ft 8kts
30-Sep-19 13:52 34.426654 -119.840813 87 13ft 14kts
30-Sep-19 13:53 34.426181 -119.838153 163 13ft 6kts
30-Sep-19 13:54 34.423747 -119.837434 167 13ft 19kts
30-Sep-19 13:55 34.423188 -119.836473 77 13ft 3kts
30-Sep-19 13:56 34.423145 -119.835922 164 13ft 1kts
30-Sep-19 13:57 34.423148 -119.835923 164 13ft 0kts
30-Sep-19 13:58 34.739208 -118.216650 162 2351ft 0kts

Navigation Log

Ident Type
Flight plan parsing failed, navigation log unavailable